createdAt,value
2023-05-22T00:01:45.435Z,73.97
2023-05-22T00:04:21.591Z,74.08
2023-05-22T00:06:49.686Z,74.03
2023-05-22T00:09:17.566Z,74.33
2023-05-22T00:11:45.561Z,74.11
2023-05-22T00:14:13.688Z,74.15
2023-05-22T00:16:41.718Z,74.11
2023-05-22T00:19:13.701Z,73.84
2023-05-22T00:21:42.994Z,74.28
2023-05-22T00:24:11.064Z,74.10
2023-05-22T00:26:38.910Z,74.13
2023-05-22T00:29:06.736Z,74.25
2023-05-22T00:31:34.570Z,74.46
2023-05-22T00:34:02.427Z,74.57
2023-05-22T00:36:30.381Z,74.46
2023-05-22T00:38:59.468Z,74.99
2023-05-22T00:41:27.461Z,74.99
2023-05-22T00:43:55.165Z,75.36
2023-05-22T00:46:24.563Z,75.25
2023-05-22T00:48:52.905Z,75.22
2023-05-22T00:51:21.530Z,75.54
2023-05-22T00:53:49.806Z,75.55
2023-05-22T00:56:19.959Z,76.00
2023-05-22T00:58:47.724Z,76.04
2023-05-22T01:01:16.162Z,76.19
2023-05-22T01:03:45.078Z,76.25
2023-05-22T01:06:14.665Z,76.45
2023-05-22T01:08:43.488Z,76.07
2023-05-22T01:11:14.673Z,76.81
2023-05-22T01:13:47.967Z,76.16
2023-05-22T01:16:25.613Z,76.33
2023-05-22T01:19:01.166Z,76.89
2023-05-22T01:21:35.609Z,77.38
2023-05-22T01:24:37.883Z,77.73
2023-05-22T01:27:35.220Z,77.75
2023-05-22T01:30:18.535Z,78.56
2023-05-22T01:32:48.690Z,77.85
2023-05-22T01:35:18.744Z,77.97
2023-05-22T01:37:46.844Z,78.44
2023-05-22T01:40:14.909Z,78.96
2023-05-22T01:42:42.848Z,79.03
2023-05-22T01:45:12.269Z,79.19
2023-05-22T01:47:40.116Z,79.63
2023-05-22T01:50:10.246Z,79.40
2023-05-22T01:52:42.171Z,79.57
2023-05-22T01:55:14.472Z,79.84
2023-05-22T01:57:47.804Z,80.26
2023-05-22T02:00:16.584Z,80.56
2023-05-22T02:02:47.555Z,81.38
2023-05-22T02:05:18.861Z,81.60
2023-05-22T02:07:47.278Z,81.49
2023-05-22T02:10:15.778Z,82.00
2023-05-22T02:12:43.500Z,82.48
2023-05-22T02:15:11.672Z,82.02
2023-05-22T02:17:41.475Z,82.04
2023-05-22T02:20:14.474Z,82.79
2023-05-22T02:22:45.098Z,83.00
2023-05-22T02:25:14.496Z,82.14
2023-05-22T02:27:43.102Z,81.68
2023-05-22T02:30:11.832Z,81.47
2023-05-22T02:32:40.160Z,81.56
2023-05-22T02:35:08.895Z,80.96
2023-05-22T02:37:36.822Z,81.21
2023-05-22T02:40:07.275Z,81.12
2023-05-22T02:42:35.523Z,81.21
2023-05-22T02:45:03.667Z,81.47
2023-05-22T02:47:31.419Z,81.47
2023-05-22T02:49:59.240Z,81.57
2023-05-22T02:52:28.376Z,81.72
2023-05-22T02:54:56.187Z,82.09
2023-05-22T02:57:25.332Z,81.99
2023-05-22T02:59:54.166Z,82.31
2023-05-22T03:02:21.938Z,82.48
2023-05-22T03:04:49.627Z,82.67
2023-05-22T03:07:17.371Z,82.64
2023-05-22T03:09:45.102Z,82.96
2023-05-22T03:12:12.851Z,83.52
2023-05-22T03:14:42.040Z,83.80
2023-05-22T03:17:09.734Z,83.69
2023-05-22T03:19:37.615Z,84.05
2023-05-22T03:22:06.615Z,84.02
2023-05-22T03:24:34.403Z,84.60
2023-05-22T03:27:02.118Z,84.55
2023-05-22T03:29:29.862Z,84.50
2023-05-22T03:31:59.969Z,84.47
2023-05-22T03:34:30.005Z,84.64
2023-05-22T03:36:58.063Z,84.79
2023-05-22T03:39:25.860Z,84.83
2023-05-22T03:41:53.586Z,84.72
2023-05-22T03:44:21.586Z,85.13
2023-05-22T03:46:49.263Z,85.46
2023-05-22T03:49:18.408Z,85.66
2023-05-22T03:51:46.196Z,85.97
2023-05-22T03:54:13.945Z,86.42
2023-05-22T03:56:41.682Z,86.57
2023-05-22T03:59:09.611Z,86.35
2023-05-22T04:01:39.349Z,87.03
2023-05-22T04:04:07.152Z,87.24
2023-05-22T04:06:43.000Z,87.21
2023-05-22T04:09:11.922Z,87.62
2023-05-22T04:11:42.143Z,87.75
2023-05-22T04:14:10.346Z,87.81
2023-05-22T04:16:38.187Z,88.12
2023-05-22T04:19:05.951Z,87.96
2023-05-22T04:21:34.443Z,88.51
2023-05-22T04:24:07.458Z,88.04
2023-05-22T04:26:36.174Z,88.37
2023-05-22T04:29:04.017Z,88.75
2023-05-22T04:31:32.558Z,88.54
2023-05-22T04:34:00.445Z,88.62
2023-05-22T04:36:29.085Z,88.65
2023-05-22T04:38:56.901Z,88.51
2023-05-22T04:41:26.673Z,88.90
2023-05-22T04:43:54.775Z,88.84
2023-05-22T04:46:22.704Z,88.92
2023-05-22T04:48:51.054Z,89.06
2023-05-22T04:51:18.929Z,88.98
2023-05-22T04:53:49.336Z,88.88
2023-05-22T04:56:27.978Z,89.49
2023-05-22T04:59:05.436Z,89.30
2023-05-22T05:01:35.100Z,89.42
2023-05-22T05:04:03.698Z,89.37
2023-05-22T05:06:31.660Z,89.50
2023-05-22T05:08:59.688Z,89.65
2023-05-22T05:11:27.423Z,89.57
2023-05-22T05:13:55.094Z,89.79
2023-05-22T05:16:25.213Z,89.68
2023-05-22T05:18:53.469Z,89.69
2023-05-22T05:21:21.446Z,90.39
2023-05-22T05:23:49.191Z,89.74
2023-05-22T05:26:16.947Z,89.81
2023-05-22T05:28:44.680Z,90.25
2023-05-22T05:31:12.599Z,90.54
2023-05-22T05:33:41.812Z,90.34
2023-05-22T05:36:10.059Z,90.47
2023-05-22T05:38:37.992Z,90.82
2023-05-22T05:41:06.025Z,90.83
2023-05-22T05:43:33.849Z,91.18
2023-05-22T05:46:01.830Z,91.21
2023-05-22T05:48:29.606Z,91.26
2023-05-22T05:50:58.743Z,91.33
2023-05-22T05:53:26.500Z,91.74
2023-05-22T05:55:54.293Z,91.73
2023-05-22T05:58:22.027Z,91.68
2023-05-22T06:00:49.835Z,92.35
2023-05-22T06:03:18.197Z,91.91
2023-05-22T06:05:47.010Z,92.01
2023-05-22T06:08:16.098Z,92.43
2023-05-22T06:10:43.800Z,92.35
2023-05-22T06:13:11.658Z,92.10
2023-05-22T06:15:39.452Z,91.86
2023-05-22T06:18:07.475Z,91.68
2023-05-22T06:20:35.301Z,91.85
2023-05-22T06:23:03.066Z,91.77
2023-05-22T06:25:32.227Z,92.11
2023-05-22T06:28:00.836Z,91.91
2023-05-22T06:30:39.459Z,92.23
2023-05-22T06:33:11.574Z,92.32
2023-05-22T06:35:39.522Z,92.52
2023-05-22T06:38:07.255Z,92.92
2023-05-22T06:40:36.443Z,92.92
2023-05-22T06:43:04.194Z,92.72
2023-05-22T06:45:31.959Z,92.06
2023-05-22T06:47:59.862Z,91.57
2023-05-22T06:50:27.660Z,92.46
2023-05-22T06:52:55.454Z,91.92
2023-05-22T06:55:23.633Z,91.59
2023-05-22T06:57:52.864Z,91.29
2023-05-22T07:00:21.886Z,91.28
2023-05-22T07:02:49.925Z,91.24
2023-05-22T07:05:18.206Z,90.62
2023-05-22T07:07:46.378Z,90.53
2023-05-22T07:10:14.670Z,90.09
2023-05-22T07:12:42.452Z,90.77
2023-05-22T07:15:14.457Z,89.57
2023-05-22T07:17:43.291Z,88.93
2023-05-22T07:20:12.029Z,88.74
2023-05-22T07:24:44.728Z,87.41
2023-05-22T07:27:12.465Z,87.82
2023-05-22T07:29:40.223Z,86.88
2023-05-22T07:32:08.903Z,85.39
2023-05-22T07:34:37.326Z,85.13
2023-05-22T07:37:08.352Z,84.54
2023-05-22T07:39:36.361Z,83.54
2023-05-22T07:42:06.164Z,82.45
2023-05-22T07:44:34.318Z,80.99
2023-05-22T07:47:02.116Z,79.97
2023-05-22T07:49:29.836Z,80.96
2023-05-22T07:51:57.542Z,81.19
2023-05-22T07:54:25.255Z,79.38
2023-05-22T07:56:53.337Z,77.66
2023-05-22T07:59:23.792Z,77.92
2023-05-22T08:03:41.690Z,78.30
2023-05-22T08:06:10.052Z,77.97
2023-05-22T08:08:37.851Z,79.74
2023-05-22T08:11:06.129Z,80.05
2023-05-22T08:13:34.280Z,82.02
2023-05-22T08:16:02.202Z,81.46
2023-05-22T08:18:30.317Z,79.43
2023-05-22T08:21:00.550Z,78.52
2023-05-22T08:23:28.392Z,81.44
2023-05-22T08:25:56.160Z,78.72
2023-05-22T08:28:23.927Z,77.03
2023-05-22T08:30:51.885Z,77.31
2023-05-22T08:33:20.137Z,76.49
2023-05-22T08:35:47.998Z,76.43
2023-05-22T08:38:17.597Z,76.76
2023-05-22T08:40:49.412Z,79.66
2023-05-22T08:43:17.127Z,80.69
2023-05-22T08:45:44.934Z,77.33
2023-05-22T08:48:14.545Z,75.71
2023-05-22T08:50:43.228Z,74.13
2023-05-22T08:53:14.845Z,72.61
2023-05-22T08:55:43.966Z,72.26
2023-05-22T08:58:12.609Z,72.18
2023-05-22T09:00:41.033Z,71.29
2023-05-22T09:03:10.257Z,72.08
2023-05-22T09:05:39.318Z,74.84
2023-05-22T09:08:19.157Z,73.61
2023-05-22T09:12:15.482Z,70.84
2023-05-22T09:14:43.819Z,69.72
2023-05-22T09:17:12.799Z,69.40
2023-05-22T09:19:44.825Z,66.83
2023-05-22T09:22:12.608Z,66.51
2023-05-22T09:24:42.089Z,66.21
2023-05-22T09:27:10.701Z,66.87
2023-05-22T09:29:50.325Z,67.72
2023-05-22T09:32:18.607Z,67.92
2023-05-22T09:34:47.373Z,67.28
2023-05-22T09:37:15.207Z,68.41
2023-05-22T09:39:45.075Z,67.17
2023-05-22T09:42:15.009Z,67.64
2023-05-22T09:44:44.182Z,66.53
2023-05-22T09:47:13.342Z,67.67
2023-05-22T09:49:43.114Z,68.34
2023-05-22T09:52:12.562Z,67.33
2023-05-22T09:54:44.755Z,67.55
2023-05-22T09:57:15.124Z,68.14
2023-05-22T09:59:43.820Z,68.05
2023-05-22T10:02:13.370Z,68.39
2023-05-22T10:04:42.549Z,67.97
2023-05-22T10:07:12.041Z,67.83
2023-05-22T10:09:40.755Z,67.85
2023-05-22T10:12:10.362Z,68.33
2023-05-22T10:14:38.093Z,68.47
2023-05-22T10:17:06.956Z,70.38
2023-05-22T10:19:40.348Z,72.27
2023-05-22T10:22:09.903Z,72.75
2023-05-22T10:24:38.354Z,73.37
2023-05-22T10:27:06.426Z,72.82
2023-05-22T10:29:37.571Z,72.64
2023-05-22T10:32:08.992Z,71.97
2023-05-22T10:34:43.603Z,72.41
2023-05-22T10:37:22.472Z,72.79
2023-05-22T10:40:00.745Z,71.20
2023-05-22T10:42:30.945Z,71.16
2023-05-22T10:44:59.689Z,72.00
2023-05-22T10:47:27.484Z,69.95
2023-05-22T10:50:06.197Z,70.77
2023-05-22T10:52:33.929Z,69.87
2023-05-22T10:55:02.336Z,69.80
2023-05-22T10:57:34.440Z,69.22
2023-05-22T13:30:57.812Z,54.86
2023-05-22T13:33:36.816Z,53.72
2023-05-22T13:36:05.557Z,53.56
2023-05-22T13:38:33.624Z,53.88
2023-05-22T13:41:01.329Z,54.33
2023-05-22T13:43:29.026Z,54.96
2023-05-22T13:45:56.745Z,56.69
2023-05-22T13:48:24.463Z,54.86
2023-05-22T13:50:53.584Z,54.29
2023-05-22T13:53:21.286Z,51.82
2023-05-22T13:55:49.017Z,51.48
2023-05-22T13:58:16.768Z,51.53
2023-05-22T14:00:44.477Z,51.20
2023-05-22T14:03:17.412Z,51.04
2023-05-22T14:05:45.452Z,50.73
2023-05-22T14:08:14.558Z,51.62
2023-05-22T14:10:42.328Z,50.80
2023-05-22T14:13:10.034Z,50.27
2023-05-22T14:15:37.816Z,50.75
2023-05-22T14:18:05.737Z,50.28
2023-05-22T14:20:33.416Z,50.14
2023-05-22T14:23:01.121Z,50.09
2023-05-22T14:25:30.287Z,50.79
2023-05-22T14:27:58.113Z,51.39
2023-05-22T14:30:25.782Z,51.35
2023-05-22T14:35:31.389Z,50.75
2023-05-22T14:37:59.306Z,51.35
2023-05-22T14:40:27.033Z,59.68
2023-05-22T14:42:54.760Z,61.60
2023-05-22T14:46:02.471Z,62.87
2023-05-22T14:48:30.192Z,63.65
2023-05-22T14:50:58.240Z,63.86
2023-05-22T14:53:26.005Z,67.21
2023-05-22T14:55:53.731Z,100.00
2023-05-22T15:00:54.115Z,100.00
2023-05-22T15:03:23.519Z,100.00
2023-05-22T15:05:51.221Z,100.00
2023-05-22T15:08:20.398Z,100.00
2023-05-22T16:03:34.359Z,100.00
2023-05-22T16:06:02.271Z,100.00
2023-05-22T16:08:29.970Z,100.00
2023-05-22T16:11:00.706Z,100.00
2023-05-22T16:13:28.614Z,100.00
2023-05-22T16:15:56.558Z,100.00
2023-05-22T16:18:24.356Z,100.00
2023-05-22T16:20:53.445Z,100.00
2023-05-22T16:23:21.156Z,100.00
2023-05-22T16:25:50.828Z,100.00
2023-05-22T16:28:18.964Z,100.00
2023-05-22T16:30:46.703Z,100.00
2023-05-22T16:33:14.476Z,94.26
2023-05-22T16:35:46.868Z,90.83
2023-05-22T16:38:16.176Z,86.09
2023-05-22T16:40:43.930Z,84.42
2023-05-22T16:43:13.723Z,83.63
2023-05-22T16:45:46.467Z,82.64
2023-05-22T16:48:14.366Z,81.60
2023-05-22T16:50:42.462Z,81.94
2023-05-22T16:53:10.220Z,79.60
2023-05-22T16:55:39.594Z,76.62
2023-05-22T16:58:08.991Z,72.43
2023-05-22T17:00:37.557Z,70.46
2023-05-22T17:03:06.743Z,68.83
2023-05-22T17:05:34.825Z,68.90
2023-05-22T17:08:03.075Z,68.86
2023-05-22T17:10:30.851Z,68.78
2023-05-22T17:12:59.924Z,66.96
2023-05-22T17:15:27.682Z,67.39
2023-05-22T17:17:55.501Z,65.79
2023-05-22T17:20:23.369Z,64.29
2023-05-22T17:22:51.137Z,64.54
2023-05-22T17:25:19.003Z,64.60
2023-05-22T17:27:46.690Z,64.35
2023-05-22T17:30:15.959Z,64.02
2023-05-22T17:32:44.854Z,63.02
2023-05-22T17:35:12.633Z,63.20
2023-05-22T17:37:40.581Z,61.24
2023-05-22T17:40:09.943Z,59.80
2023-05-22T17:42:37.649Z,59.27
2023-05-22T17:45:06.021Z,59.41
2023-05-22T17:47:35.183Z,57.69
2023-05-22T17:50:03.023Z,56.93
2023-05-22T17:52:31.021Z,56.85
2023-05-22T17:54:58.741Z,55.60
2023-05-22T17:57:26.631Z,56.21
2023-05-22T17:59:54.323Z,56.51
2023-05-22T18:02:22.136Z,56.76
2023-05-22T18:04:51.272Z,57.03
2023-05-22T18:07:20.000Z,57.40
2023-05-22T18:09:48.181Z,57.15
2023-05-22T18:12:31.071Z,57.68
2023-05-22T18:14:59.809Z,57.58
2023-05-22T18:17:27.612Z,58.42
2023-05-22T18:19:56.692Z,57.81
2023-05-22T18:22:25.518Z,57.26
2023-05-22T18:24:53.226Z,57.73
2023-05-22T18:27:21.092Z,57.58
2023-05-22T18:29:50.459Z,57.64
2023-05-22T18:32:18.194Z,57.51
2023-05-22T18:34:46.521Z,58.43
2023-05-22T18:37:16.393Z,58.61
2023-05-22T18:39:44.103Z,58.82
2023-05-22T18:42:11.838Z,59.74
2023-05-22T18:44:39.573Z,59.99
2023-05-22T18:47:07.763Z,60.54
2023-05-22T18:49:35.516Z,61.08
2023-05-22T18:52:03.287Z,61.22
2023-05-22T18:54:32.388Z,61.78
2023-05-22T18:57:00.155Z,61.88
2023-05-22T18:59:27.932Z,62.21
2023-05-22T19:01:55.688Z,61.98
2023-05-22T19:04:23.679Z,61.89
2023-05-22T19:06:53.760Z,61.60
2023-05-22T19:09:22.094Z,61.86
2023-05-22T19:11:51.257Z,61.97
2023-05-22T19:14:19.103Z,62.22
2023-05-22T19:16:46.897Z,61.73
2023-05-22T19:19:14.840Z,62.36
2023-05-22T19:21:42.690Z,61.65
2023-05-22T19:24:10.542Z,62.17
2023-05-22T19:26:38.256Z,62.37
2023-05-22T19:29:07.426Z,62.42
2023-05-22T19:31:36.083Z,62.21
2023-05-22T19:34:03.761Z,62.29
2023-05-22T19:36:31.882Z,62.35
2023-05-22T19:38:59.781Z,62.40
2023-05-22T19:41:27.624Z,62.89
2023-05-22T19:43:55.384Z,62.87
2023-05-22T19:46:24.519Z,63.48
2023-05-22T19:48:52.461Z,63.62
2023-05-22T19:51:20.214Z,63.88
2023-05-22T19:53:47.948Z,64.37
2023-05-22T19:56:16.002Z,64.82
2023-05-22T19:58:43.679Z,64.42
2023-05-22T20:01:11.594Z,64.69
2023-05-22T20:03:41.090Z,65.35
2023-05-22T20:06:08.948Z,65.26
2023-05-22T20:08:37.453Z,65.69
2023-05-22T20:11:05.162Z,66.01
2023-05-22T20:13:32.947Z,66.15
2023-05-22T20:16:03.517Z,66.23
2023-05-22T20:18:31.726Z,66.72
2023-05-22T20:21:00.848Z,66.51
2023-05-22T20:23:29.812Z,66.74
2023-05-22T20:25:57.575Z,67.25
2023-05-22T20:28:26.398Z,67.21
2023-05-22T20:30:54.108Z,67.48
2023-05-22T20:33:21.887Z,67.67
2023-05-22T20:35:52.839Z,68.29
2023-05-22T20:38:22.424Z,69.30
2023-05-22T20:40:51.862Z,69.93
2023-05-22T20:43:20.021Z,70.67
2023-05-22T20:45:48.038Z,70.90
2023-05-22T20:48:16.587Z,71.50
2023-05-22T20:50:47.135Z,72.05
2023-05-22T20:53:14.983Z,72.72
2023-05-22T20:55:44.156Z,73.29
2023-05-22T20:58:11.892Z,73.82
2023-05-22T21:00:41.489Z,74.19
2023-05-22T21:03:09.430Z,74.46
2023-05-22T21:05:37.754Z,75.58
2023-05-22T21:08:05.584Z,75.38
2023-05-22T21:10:33.271Z,75.78
2023-05-22T21:13:02.395Z,76.16
2023-05-22T21:15:30.121Z,76.08
2023-05-22T21:17:57.846Z,76.29
2023-05-22T21:20:25.806Z,76.63
2023-05-22T21:22:53.507Z,76.99
2023-05-22T21:25:21.487Z,77.09
2023-05-22T21:27:49.407Z,77.31
2023-05-22T21:30:18.573Z,77.66
2023-05-22T21:32:46.310Z,77.33
2023-05-22T21:35:14.110Z,77.63
2023-05-22T21:37:41.865Z,78.28
2023-05-22T21:40:10.213Z,78.00
2023-05-22T21:42:46.521Z,78.32
2023-05-22T21:45:15.010Z,78.30
2023-05-22T21:47:44.393Z,78.89
2023-05-22T21:50:12.728Z,78.89
2023-05-22T21:52:40.586Z,78.43
2023-05-22T21:55:08.822Z,78.19
2023-05-22T21:57:37.901Z,77.85
2023-05-22T22:00:06.171Z,76.93
2023-05-22T22:02:34.025Z,76.62
2023-05-22T22:05:03.331Z,76.99
2023-05-22T22:07:31.126Z,76.81
2023-05-22T22:09:59.299Z,76.93
2023-05-22T22:12:27.069Z,76.98
2023-05-22T22:14:54.786Z,77.36
2023-05-22T22:17:23.419Z,77.63
2023-05-22T22:19:53.569Z,77.63
2023-05-22T22:22:22.836Z,77.88
2023-05-22T22:24:50.753Z,78.22
2023-05-22T22:27:19.663Z,78.05
2023-05-22T22:29:47.389Z,78.66
2023-05-22T22:32:15.207Z,78.44
2023-05-22T22:34:43.155Z,78.23
2023-05-22T22:37:11.166Z,78.46
2023-05-22T22:39:40.347Z,78.88
2023-05-22T22:42:08.706Z,78.61
2023-05-22T22:44:36.398Z,78.62
2023-05-22T22:47:04.628Z,78.76
2023-05-22T22:49:32.817Z,78.71
2023-05-22T22:52:00.847Z,78.89
2023-05-22T22:54:28.707Z,79.43
2023-05-22T22:56:58.006Z,78.84
2023-05-22T22:59:25.688Z,78.91
2023-05-22T23:01:53.663Z,78.98
2023-05-22T23:04:21.531Z,79.09
2023-05-22T23:06:49.388Z,79.31
2023-05-22T23:09:17.478Z,79.16
2023-05-22T23:11:45.272Z,79.12
2023-05-22T23:14:14.329Z,79.71
2023-05-22T23:16:42.053Z,79.41
2023-05-22T23:19:10.968Z,79.57
2023-05-22T23:21:38.852Z,79.65
2023-05-22T23:24:07.301Z,79.65
2023-05-22T23:26:35.301Z,79.98
2023-05-22T23:29:03.363Z,80.20
2023-05-22T23:31:32.536Z,80.52
2023-05-22T23:34:00.463Z,80.54
2023-05-22T23:36:28.311Z,80.65
2023-05-22T23:38:56.022Z,80.96
2023-05-22T23:41:24.437Z,80.72
2023-05-22T23:43:52.149Z,81.03
2023-05-22T23:46:21.283Z,81.02
2023-05-22T23:48:50.516Z,81.08
2023-05-22T23:51:18.741Z,81.17
2023-05-22T23:53:46.436Z,81.71
2023-05-22T23:56:14.221Z,81.96
2023-05-22T23:58:42.028Z,82.04
